NCAR-RAP Real-Time Weather Data

Output produced by METARs form (26 May 2022  08:38 UTC)
found at http://weather.rap.ucar.edu/surface/
 
KLAN 260753Z 18010KT 10SM CLR 21/18 A2985 RMK AO2 SLP104 T02060178 $
KLAN 260653Z 17011KT 10SM FEW110 21/18 A2986 RMK AO2 SLP109 T02060178 $
KLAN 260553Z 16008KT 10SM BKN100 OVC120 21/18 A2987 RMK AO2 RAE0457 SLP111 P0001 60029 T02060178 10222 20194 58018 $
KLAN 260453Z 14011KT 7SM -RA FEW022 SCT043 OVC070 20/17 A2989 RMK AO2 RAB06 SLP118 P0018 T02000172 402220100 $
KLAN 260445Z 13011KT 3SM -RA FEW022 BKN070 OVC090 20/17 A2990 RMK AO2 RAB06 P0018 T02000172 $
KLAN 260437Z 14008KT 1 3/4SM +RA FEW024 BKN036 OVC095 20/17 A2990 RMK AO2 RAB06 P0008 T02000172 $
KLAN 260353Z 14007KT 10SM FEW044 SCT080 OVC110 19/17 A2991 RMK AO2 RAE17B37E51 SLP125 P0002 T01940167 $
KLAN 260253Z 15010KT 5SM RA SCT090 BKN110 20/17 A2992 RMK AO2 PK WND 17030/0225 RAB0157 SLP130 P0007 60008 T02000167 55004 $
KLAN 260153Z 14012KT 10SM FEW043 FEW100 BKN120 21/16 A2991 RMK AO2 LTG DSNT S RAB0058E41 SLP126 P0001 T02110161 $
KLAN 260053Z 13010KT 10SM SCT110 22/16 A2992 RMK AO2 SLP128 T02170161
KLAN 252353Z 13010KT 10SM SCT120 22/17 A2993 RMK AO2 SLP134 60005 T02220167 10222 20189 56019
KLAN 252253Z 14011KT 10SM FEW070 22/17 A2994 RMK AO2 SLP138 T02220167
KLAN 252218Z 13014KT 10SM SCT014 BKN042 BKN080 22/17 A2995 RMK AO2 T02170167
KLAN 252153Z 14011G20KT 10SM BKN014 OVC042 21/17 A2997 RMK AO2 SLP147 T02110167
KLAN 252053Z 15014G22KT 10SM OVC011 20/16 A2999 RMK AO2 PK WND 13027/2020 SLP156 60005 T02000161 56025
KLAN 251953Z 14014G21KT 10SM OVC011 20/17 A3001 RMK AO2 RAE15 SLP163 P0001 T02000167